createdAt,value
2023-02-22T00:02:11.303Z,56.23
2023-02-22T00:04:39.658Z,42.37
2023-02-22T00:07:07.839Z,31.30
2023-02-22T00:09:34.695Z,31.77
2023-02-22T00:12:04.270Z,11.03
2023-02-22T00:14:31.353Z,30.90
2023-02-22T00:16:59.600Z,21.97
2023-02-22T00:19:30.100Z,128.13
2023-02-22T00:21:57.988Z,68.93
2023-02-22T00:24:25.148Z,69.47
2023-02-22T00:26:55.927Z,59.73
2023-02-22T00:29:25.142Z,103.63
2023-02-22T00:31:52.724Z,97.33
2023-02-22T00:34:19.734Z,57.03
2023-02-22T00:36:50.161Z,75.67
2023-02-22T00:39:17.528Z,27.37
2023-02-22T00:41:44.727Z,56.53
2023-02-22T00:44:11.931Z,15.13
2023-02-22T00:46:39.699Z,21.27
2023-02-22T00:49:06.671Z,28.63
2023-02-22T00:51:33.826Z,15.47
2023-02-22T00:54:00.914Z,53.80
2023-02-22T00:56:28.184Z,10.60
2023-02-22T00:58:55.061Z,44.67
2023-02-22T01:01:23.948Z,16.10
2023-02-22T01:03:54.143Z,24.87
2023-02-22T01:06:22.754Z,46.90
2023-02-22T01:08:51.208Z,8.63
2023-02-22T01:11:22.493Z,28.40
2023-02-22T01:13:49.470Z,25.00
2023-02-22T01:16:16.596Z,16.07
2023-02-22T01:18:43.615Z,34.60
2023-02-22T01:21:10.641Z,25.87
2023-02-22T01:23:37.640Z,34.17
2023-02-22T01:26:08.428Z,17.67
2023-02-22T01:28:35.488Z,21.33
2023-02-22T01:31:03.083Z,47.20
2023-02-22T01:33:33.992Z,45.00
2023-02-22T01:36:00.882Z,33.67
2023-02-22T01:38:27.800Z,38.47
2023-02-22T01:40:54.916Z,18.33
2023-02-22T01:43:30.447Z,26.90
2023-02-22T01:46:04.595Z,25.27
2023-02-22T01:48:47.023Z,29.67
2023-02-22T01:51:29.088Z,30.80
2023-02-22T01:54:06.013Z,31.57
2023-02-22T01:56:38.760Z,46.10
2023-02-22T01:59:11.218Z,60.37
2023-02-22T02:01:43.048Z,17.80
2023-02-22T02:04:25.496Z,33.07
2023-02-22T02:06:59.415Z,56.13
2023-02-22T02:09:50.625Z,39.30
2023-02-22T02:12:23.155Z,22.37
2023-02-22T02:14:51.587Z,21.13
2023-02-22T02:17:23.448Z,29.47
2023-02-22T02:20:13.733Z,49.13
2023-02-22T02:23:40.939Z,30.43
2023-02-22T02:26:47.990Z,127.70
2023-02-22T02:29:55.897Z,74.73
2023-02-22T02:32:46.777Z,119.30
2023-02-22T02:35:30.219Z,29.87
2023-02-22T02:38:12.029Z,91.40
2023-02-22T02:41:05.674Z,60.37
2023-02-22T02:43:54.165Z,64.07
2023-02-22T02:46:36.682Z,59.20
2023-02-22T02:49:12.355Z,18.53
2023-02-22T02:51:45.863Z,60.47
2023-02-22T02:54:15.070Z,70.17
2023-02-22T02:56:42.906Z,41.33
2023-02-22T02:59:33.217Z,87.13
2023-02-22T03:02:22.482Z,65.07
2023-02-22T03:05:32.291Z,80.10
2023-02-22T03:08:29.925Z,61.23
2023-02-22T03:11:23.505Z,57.57
2023-02-22T03:14:19.593Z,63.63
2023-02-22T03:17:01.010Z,63.40
2023-02-22T03:19:53.868Z,33.90
2023-02-22T03:22:44.031Z,80.00
2023-02-22T03:25:23.194Z,79.20
2023-02-22T03:28:03.301Z,38.00
2023-02-22T03:30:49.022Z,46.77
2023-02-22T03:33:28.694Z,18.00
2023-02-22T03:36:06.483Z,65.20
2023-02-22T03:38:38.474Z,35.37
2023-02-22T03:41:09.866Z,70.60
2023-02-22T03:43:47.837Z,76.00
2023-02-22T03:46:19.333Z,59.90
2023-02-22T03:49:17.354Z,58.73
2023-02-22T03:51:44.376Z,28.10
2023-02-22T03:54:16.469Z,27.40
2023-02-22T03:56:54.868Z,12.93
2023-02-22T03:59:27.259Z,38.47
2023-02-22T04:01:56.661Z,57.03
2023-02-22T04:04:25.449Z,8.83
2023-02-22T04:06:52.709Z,47.17
2023-02-22T04:09:20.898Z,19.83
2023-02-22T04:11:49.278Z,39.57
2023-02-22T04:14:16.540Z,30.33
2023-02-22T04:16:43.958Z,27.23
2023-02-22T04:19:11.292Z,22.03
2023-02-22T04:21:39.498Z,42.17
2023-02-22T04:24:11.747Z,25.87
2023-02-22T04:26:40.765Z,27.20
2023-02-22T04:29:08.332Z,32.90
2023-02-22T04:31:38.568Z,29.43
2023-02-22T04:34:06.325Z,41.90
2023-02-22T04:36:36.998Z,35.63
2023-02-22T04:39:05.165Z,40.90
2023-02-22T04:41:32.200Z,40.80
2023-02-22T04:43:59.139Z,29.90
2023-02-22T04:46:27.277Z,34.90
2023-02-22T04:48:54.800Z,22.03
2023-02-22T04:51:25.562Z,45.10
2023-02-22T04:53:59.658Z,54.37
2023-02-22T04:56:26.558Z,32.60
2023-02-22T04:58:53.725Z,55.80
2023-02-22T05:01:20.593Z,54.80
2023-02-22T05:03:47.869Z,35.70
2023-02-22T05:06:16.258Z,35.90
2023-02-22T05:08:43.108Z,59.73
2023-02-22T05:11:10.006Z,31.83
2023-02-22T05:13:37.037Z,40.60
2023-02-22T05:16:04.361Z,44.87
2023-02-22T05:18:31.554Z,32.60
2023-02-22T05:20:58.375Z,24.67
2023-02-22T05:23:25.213Z,69.47
2023-02-22T05:25:52.032Z,33.07
2023-02-22T05:28:18.897Z,26.83
2023-02-22T05:30:45.939Z,13.80
2023-02-22T05:33:13.053Z,40.07
2023-02-22T05:35:40.573Z,29.17
2023-02-22T05:38:08.059Z,34.77
2023-02-22T05:40:35.157Z,57.90
2023-02-22T05:43:02.944Z,25.67
2023-02-22T05:45:30.237Z,23.10
2023-02-22T05:47:57.853Z,21.87
2023-02-22T05:50:25.749Z,29.83
2023-02-22T05:52:56.318Z,20.43
2023-02-22T05:55:24.590Z,41.00
2023-02-22T05:57:52.637Z,14.47
2023-02-22T06:00:30.690Z,18.50
2023-02-22T06:03:06.336Z,16.07
2023-02-22T06:05:33.305Z,40.40
2023-02-22T06:08:02.115Z,37.23
2023-02-22T06:10:29.971Z,60.63
2023-02-22T06:12:58.126Z,57.93
2023-02-22T06:15:27.769Z,33.93
2023-02-22T06:17:56.692Z,18.50
2023-02-22T06:20:28.928Z,14.37
2023-02-22T06:22:58.420Z,43.93
2023-02-22T06:25:31.054Z,30.13
2023-02-22T06:28:00.476Z,58.53
2023-02-22T06:30:28.804Z,17.43
2023-02-22T06:32:55.738Z,43.63
2023-02-22T06:35:22.984Z,30.73
2023-02-22T06:37:49.928Z,43.50
2023-02-22T06:40:16.949Z,36.40
2023-02-22T06:42:43.946Z,36.67
2023-02-22T06:45:13.621Z,44.77
2023-02-22T06:47:43.477Z,55.40
2023-02-22T06:50:24.087Z,89.83
2023-02-22T06:52:51.328Z,53.23
2023-02-22T06:55:25.542Z,65.97
2023-02-22T06:57:52.734Z,25.90
2023-02-22T07:00:23.224Z,25.40
2023-02-22T07:02:50.066Z,48.50
2023-02-22T07:05:22.775Z,51.47
2023-02-22T07:07:55.316Z,69.07
2023-02-22T07:10:29.021Z,42.77
2023-02-22T07:12:56.118Z,58.97
2023-02-22T07:15:25.900Z,46.47
2023-02-22T07:17:53.534Z,57.53
2023-02-22T07:20:22.069Z,26.73
2023-02-22T07:22:49.729Z,45.73
2023-02-22T07:25:25.197Z,56.13
2023-02-22T07:27:54.837Z,30.77
2023-02-22T07:30:31.644Z,24.53
2023-02-22T07:33:02.031Z,22.27
2023-02-22T07:35:38.385Z,36.40
2023-02-22T07:38:10.478Z,44.07
2023-02-22T07:40:38.381Z,35.00
2023-02-22T07:43:19.843Z,42.03
2023-02-22T07:45:49.334Z,45.73
2023-02-22T07:48:18.785Z,46.37
2023-02-22T07:50:48.447Z,31.00
2023-02-22T07:53:33.637Z,102.80
2023-02-22T07:56:13.138Z,36.10
2023-02-22T07:58:39.970Z,54.57
2023-02-22T08:01:06.808Z,60.70
2023-02-22T08:03:36.566Z,43.03
2023-02-22T08:06:06.400Z,74.43
2023-02-22T08:08:34.369Z,80.30
2023-02-22T08:11:01.255Z,62.93
2023-02-22T08:13:28.276Z,63.23
2023-02-22T08:15:55.210Z,60.17
2023-02-22T08:18:25.848Z,65.33
2023-02-22T08:20:54.622Z,79.67
2023-02-22T08:23:26.912Z,83.60
2023-02-22T08:25:54.435Z,97.73
2023-02-22T08:28:24.269Z,30.47
2023-02-22T08:30:59.084Z,71.90
2023-02-22T08:33:26.173Z,53.77
2023-02-22T08:35:53.406Z,96.13
2023-02-22T08:38:26.275Z,44.47
2023-02-22T08:40:53.770Z,16.80
2023-02-22T08:43:21.552Z,56.67
2023-02-22T08:45:49.968Z,48.97
2023-02-22T08:48:23.310Z,42.33
2023-02-22T08:50:53.228Z,31.40
2023-02-22T08:53:26.582Z,40.63
2023-02-22T08:55:53.856Z,22.40
2023-02-22T08:58:20.674Z,36.23
2023-02-22T09:00:47.794Z,17.87
2023-02-22T09:03:15.591Z,20.70
2023-02-22T09:05:44.309Z,42.07
2023-02-22T09:08:11.709Z,24.80
2023-02-22T09:10:38.907Z,15.33
2023-02-22T09:13:06.263Z,18.10
2023-02-22T09:15:36.109Z,16.77
2023-02-22T09:18:05.520Z,20.03
2023-02-22T09:20:32.586Z,18.00
2023-02-22T09:22:59.603Z,15.97
2023-02-22T09:25:32.962Z,19.90
2023-02-22T09:28:00.591Z,16.33
2023-02-22T09:30:32.748Z,16.83
2023-02-22T09:33:14.965Z,14.03
2023-02-22T09:35:46.173Z,16.20
2023-02-22T09:38:24.684Z,15.50
2023-02-22T09:41:16.784Z,15.27
2023-02-22T09:43:59.881Z,15.23
2023-02-22T09:46:42.040Z,14.37
2023-02-22T09:49:34.489Z,15.53
2023-02-22T09:52:14.178Z,16.87
2023-02-22T09:54:52.052Z,14.67
2023-02-22T09:57:35.152Z,13.40
2023-02-22T10:00:24.409Z,14.90
2023-02-22T10:03:21.719Z,13.37
2023-02-22T10:06:05.194Z,13.00
2023-02-22T10:08:36.425Z,15.00
2023-02-22T10:11:10.367Z,15.83
2023-02-22T10:13:58.671Z,15.27
2023-02-22T10:16:48.222Z,19.10
2023-02-22T10:19:38.343Z,18.60
2023-02-22T10:22:55.003Z,16.77
2023-02-22T10:25:27.400Z,16.03
2023-02-22T10:28:21.839Z,13.40
2023-02-22T10:30:59.085Z,15.40
2023-02-22T10:33:43.782Z,15.83
2023-02-22T10:36:21.648Z,16.27
2023-02-22T10:39:11.790Z,17.00
2023-02-22T10:41:49.242Z,16.20
2023-02-22T10:44:18.141Z,15.20
2023-02-22T10:46:51.721Z,15.87
2023-02-22T10:49:24.854Z,16.37
2023-02-22T10:52:03.777Z,15.97
2023-02-22T10:54:45.377Z,17.43
2023-02-22T10:57:25.487Z,15.97
2023-02-22T10:59:59.273Z,16.30
2023-02-22T11:02:35.487Z,19.13
2023-02-22T11:05:05.217Z,20.70
2023-02-22T11:07:36.443Z,16.10
2023-02-22T11:10:10.592Z,15.67
2023-02-22T11:12:43.588Z,17.40
2023-02-22T11:15:19.588Z,16.00
2023-02-22T11:17:51.082Z,14.53
2023-02-22T11:20:34.722Z,15.13
2023-02-22T11:23:05.265Z,17.30
2023-02-22T11:25:38.116Z,13.57
2023-02-22T11:28:30.853Z,13.93
2023-02-22T11:31:20.566Z,16.23
2023-02-22T11:34:02.382Z,15.47
2023-02-22T11:36:37.907Z,12.73
2023-02-22T11:39:21.862Z,11.87
2023-02-22T11:41:51.449Z,14.00
2023-02-22T11:44:35.711Z,11.37
2023-02-22T11:47:07.007Z,12.03
2023-02-22T11:49:38.761Z,11.90
2023-02-22T11:52:38.596Z,11.93
2023-02-22T11:55:43.156Z,10.33
2023-02-22T11:58:22.129Z,12.77
2023-02-22T12:01:41.860Z,10.97
2023-02-22T12:04:40.967Z,9.40
2023-02-22T12:07:45.758Z,6.97
2023-02-22T12:10:39.951Z,6.70
2023-02-22T12:13:54.029Z,7.40
2023-02-22T12:17:07.309Z,7.00
2023-02-22T12:19:49.836Z,7.43
2023-02-22T12:23:22.984Z,9.03
2023-02-22T12:26:17.061Z,6.83
2023-02-22T12:28:59.575Z,10.07
2023-02-22T12:31:50.046Z,6.80
2023-02-22T12:34:21.735Z,6.10
2023-02-22T12:37:20.114Z,6.70
2023-02-22T12:40:13.549Z,8.33
2023-02-22T12:43:24.212Z,7.33
2023-02-22T12:46:10.307Z,7.67
2023-02-22T12:48:55.766Z,6.87
2023-02-22T12:52:19.365Z,6.20
2023-02-22T12:55:03.801Z,6.23
2023-02-22T12:58:15.441Z,6.97
2023-02-22T13:01:08.059Z,7.07
2023-02-22T13:03:42.306Z,5.97
2023-02-22T13:06:30.632Z,7.73
2023-02-22T13:09:28.162Z,6.87
2023-02-22T13:12:10.850Z,6.17
2023-02-22T13:15:14.231Z,6.77
2023-02-22T13:18:10.609Z,9.60
2023-02-22T13:21:00.120Z,6.50
2023-02-22T13:24:06.162Z,6.27
2023-02-22T13:26:47.123Z,6.00
2023-02-22T13:29:28.500Z,5.87
2023-02-22T13:32:50.056Z,7.00
2023-02-22T13:35:45.051Z,9.40
2023-02-22T13:38:54.965Z,8.33
2023-02-22T13:41:55.159Z,7.60
2023-02-22T13:45:24.904Z,5.93
2023-02-22T13:48:28.349Z,6.70
2023-02-22T13:51:31.046Z,6.93
2023-02-22T13:54:54.808Z,6.47
2023-02-22T13:57:42.102Z,9.17
2023-02-22T14:00:14.835Z,6.83
2023-02-22T14:03:11.711Z,7.20
2023-02-22T14:05:51.097Z,5.30
2023-02-22T14:08:25.098Z,6.57
2023-02-22T14:10:56.770Z,5.60
2023-02-22T14:13:29.783Z,7.63
2023-02-22T14:16:21.623Z,5.23
2023-02-22T14:19:09.406Z,5.70
2023-02-22T14:21:38.806Z,5.47
2023-02-22T14:24:16.359Z,7.90
2023-02-22T14:27:03.700Z,7.73
2023-02-22T14:29:31.598Z,6.47
2023-02-22T14:32:06.861Z,6.17
2023-02-22T14:35:00.901Z,7.00
2023-02-22T14:37:55.837Z,8.90
2023-02-22T14:40:29.202Z,8.07
2023-02-22T14:43:19.799Z,7.87
2023-02-22T14:45:58.560Z,7.83
2023-02-22T14:48:51.705Z,8.63
2023-02-22T14:51:44.250Z,9.20
2023-02-22T14:54:25.534Z,10.23
2023-02-22T14:56:59.043Z,8.90
2023-02-22T14:59:28.371Z,8.33
2023-02-22T15:02:12.043Z,9.00
2023-02-22T15:04:52.131Z,10.47
2023-02-22T15:07:31.901Z,10.23
2023-02-22T15:10:28.417Z,10.90
2023-02-22T15:13:11.917Z,7.97
2023-02-22T15:15:49.219Z,9.67
2023-02-22T15:18:39.792Z,10.13
2023-02-22T15:21:16.500Z,9.70
2023-02-22T15:24:00.425Z,9.90
2023-02-22T15:26:42.485Z,11.40
2023-02-22T15:29:25.773Z,11.80
2023-02-22T15:31:58.671Z,9.97
2023-02-22T15:34:32.226Z,8.07
2023-02-22T15:37:25.150Z,8.50
2023-02-22T15:39:59.738Z,9.13
2023-02-22T15:42:30.330Z,10.00
2023-02-22T15:44:58.043Z,8.83
2023-02-22T15:47:31.986Z,9.60
2023-02-22T15:50:30.544Z,10.37
2023-02-22T15:53:05.641Z,8.23
2023-02-22T15:55:53.401Z,6.63
2023-02-22T15:58:25.294Z,8.17
2023-02-22T16:01:06.316Z,6.97
2023-02-22T16:03:54.074Z,9.37
2023-02-22T16:06:44.134Z,10.80
2023-02-22T16:09:16.942Z,16.27
2023-02-22T16:12:09.235Z,11.87
2023-02-22T16:14:36.078Z,6.47
2023-02-22T16:17:30.736Z,4.97
2023-02-22T16:20:19.149Z,5.90
2023-02-22T16:22:49.499Z,7.17
2023-02-22T16:25:32.909Z,6.43
2023-02-22T16:28:06.015Z,5.77
2023-02-22T16:30:39.491Z,5.10
2023-02-22T16:33:16.655Z,26.23
2023-02-22T16:35:52.042Z,63.07
2023-02-22T16:38:21.206Z,68.23
2023-02-22T16:40:55.452Z,55.33
2023-02-22T16:43:33.308Z,62.00
2023-02-22T16:46:10.954Z,60.73
2023-02-22T16:48:44.010Z,38.77
2023-02-22T16:51:26.599Z,23.17
2023-02-22T16:53:55.906Z,22.70
2023-02-22T16:56:31.333Z,24.17
2023-02-22T16:59:07.368Z,23.70
2023-02-22T17:01:45.756Z,23.93
2023-02-22T17:04:31.216Z,19.50
2023-02-22T17:06:59.066Z,19.57
2023-02-22T17:09:26.624Z,18.53
2023-02-22T17:12:03.791Z,26.87
2023-02-22T17:14:36.873Z,30.63
2023-02-22T17:17:04.033Z,35.83
2023-02-22T17:19:30.961Z,47.43
2023-02-22T17:21:58.004Z,59.27
2023-02-22T17:24:29.070Z,59.90
2023-02-22T17:27:03.952Z,44.93
2023-02-22T17:29:50.789Z,31.87
2023-02-22T17:32:17.882Z,24.53
2023-02-22T17:34:55.620Z,23.00
2023-02-22T17:37:22.416Z,27.70
2023-02-22T17:39:53.545Z,34.97
2023-02-22T17:42:21.313Z,37.07
2023-02-22T17:44:50.424Z,34.87
2023-02-22T17:47:17.271Z,38.13
2023-02-22T17:49:44.294Z,44.93
2023-02-22T17:52:15.724Z,35.57
2023-02-22T17:54:42.941Z,35.93
2023-02-22T17:57:09.828Z,33.80
2023-02-22T17:59:46.061Z,28.97
2023-02-22T18:02:13.005Z,21.20
2023-02-22T18:04:40.678Z,21.27
2023-02-22T18:07:07.779Z,27.13
2023-02-22T18:09:35.828Z,32.67
2023-02-22T18:12:02.654Z,31.00
2023-02-22T18:14:32.347Z,31.63
2023-02-22T18:17:01.101Z,27.13
2023-02-22T18:19:29.141Z,22.23
2023-02-22T18:22:08.225Z,17.30
2023-02-22T18:24:46.721Z,63.93
2023-02-22T18:27:16.896Z,66.63
2023-02-22T18:29:43.836Z,51.10
2023-02-22T18:32:13.460Z,33.67
2023-02-22T18:34:47.445Z,31.83
2023-02-22T18:37:15.235Z,21.43
2023-02-22T18:39:43.115Z,22.40
2023-02-22T18:42:14.623Z,19.67
2023-02-22T18:44:54.735Z,21.37
2023-02-22T18:47:25.059Z,26.03
2023-02-22T18:49:54.657Z,23.90
2023-02-22T18:52:21.554Z,22.80
2023-02-22T18:54:55.932Z,18.97
2023-02-22T18:57:26.022Z,22.17
2023-02-22T18:59:54.902Z,18.73
2023-02-22T19:02:25.450Z,24.07
2023-02-22T19:04:53.343Z,18.17
2023-02-22T19:07:26.465Z,16.87
2023-02-22T19:09:53.368Z,16.23
2023-02-22T19:12:20.749Z,15.10
2023-02-22T19:14:47.752Z,16.00
2023-02-22T19:17:21.381Z,17.47
2023-02-22T19:19:50.886Z,13.37
2023-02-22T19:22:17.730Z,16.97
2023-02-22T19:24:50.402Z,14.03
2023-02-22T19:27:18.654Z,15.37
2023-02-22T19:29:46.661Z,22.63
2023-02-22T19:32:18.937Z,21.47
2023-02-22T19:35:01.866Z,18.17
2023-02-22T19:37:34.890Z,15.80
2023-02-22T19:40:08.728Z,16.97
2023-02-22T19:42:36.018Z,17.47
2023-02-22T19:45:05.792Z,15.83
2023-02-22T19:47:33.009Z,15.20
2023-02-22T19:50:01.378Z,14.77
2023-02-22T19:52:29.062Z,12.20
2023-02-22T19:54:56.117Z,13.40
2023-02-22T19:57:24.227Z,13.10
2023-02-22T19:59:52.429Z,14.97
2023-02-22T20:02:22.485Z,14.90
2023-02-22T20:04:50.936Z,13.00
2023-02-22T20:07:17.989Z,14.07
2023-02-22T20:09:44.822Z,13.20
2023-02-22T20:12:11.673Z,14.77
2023-02-22T20:14:42.455Z,22.20
2023-02-22T20:17:10.148Z,18.00
2023-02-22T20:19:41.331Z,17.73
2023-02-22T20:22:08.473Z,14.57
2023-02-22T20:24:35.489Z,13.20
2023-02-22T20:27:02.556Z,13.93
2023-02-22T20:29:29.913Z,13.53
2023-02-22T20:32:02.088Z,14.20
2023-02-22T20:34:33.515Z,14.33
2023-02-22T20:37:01.711Z,12.67
2023-02-22T20:39:29.214Z,11.80
2023-02-22T20:41:56.184Z,14.40
2023-02-22T20:44:23.262Z,15.07
2023-02-22T20:46:50.340Z,14.30
2023-02-22T20:49:20.231Z,13.83
2023-02-22T20:51:48.603Z,13.13
2023-02-22T20:54:17.210Z,19.33
2023-02-22T20:56:46.514Z,13.93
2023-02-22T20:59:19.243Z,11.93
2023-02-22T21:01:50.509Z,15.23
2023-02-22T21:04:17.716Z,16.23
2023-02-22T21:06:48.146Z,12.87
2023-02-22T21:09:21.958Z,16.33
2023-02-22T21:11:50.305Z,14.70
2023-02-22T21:14:21.165Z,14.03
2023-02-22T21:16:50.820Z,16.50
2023-02-22T21:19:26.039Z,14.50
2023-02-22T21:21:58.715Z,19.57
2023-02-22T21:24:28.342Z,21.43
2023-02-22T21:26:58.418Z,20.10
2023-02-22T21:29:25.774Z,15.67
2023-02-22T21:31:56.631Z,15.30
2023-02-22T21:34:25.642Z,12.93
2023-02-22T21:36:53.490Z,11.83
2023-02-22T21:39:21.991Z,18.17
2023-02-22T21:41:51.536Z,13.53
2023-02-22T21:44:19.657Z,14.10
2023-02-22T21:46:50.081Z,13.33
2023-02-22T21:49:18.064Z,14.80
2023-02-22T21:51:45.204Z,14.80
2023-02-22T21:54:12.732Z,13.23
2023-02-22T21:56:42.495Z,15.87
2023-02-22T21:59:20.103Z,16.73
2023-02-22T22:01:55.593Z,14.67
2023-02-22T22:04:31.400Z,14.27
2023-02-22T22:07:01.230Z,18.20
2023-02-22T22:09:33.436Z,14.70
2023-02-22T22:12:04.891Z,21.17
2023-02-22T22:14:35.357Z,14.90
2023-02-22T22:17:06.637Z,14.73
2023-02-22T22:19:39.234Z,13.03
2023-02-22T22:22:06.899Z,14.87
2023-02-22T22:24:34.863Z,16.73
2023-02-22T22:27:05.276Z,15.73
2023-02-22T22:29:34.213Z,12.20
2023-02-22T22:32:02.084Z,12.40
2023-02-22T22:34:30.786Z,15.70
2023-02-22T22:36:58.574Z,12.87
2023-02-22T22:39:26.882Z,15.80
2023-02-22T22:41:54.066Z,15.13
2023-02-22T22:44:24.103Z,13.20
2023-02-22T22:46:54.927Z,16.93
2023-02-22T22:49:25.318Z,15.50
2023-02-22T22:51:52.598Z,19.27
2023-02-22T22:54:19.392Z,16.23
2023-02-22T22:56:46.702Z,14.50
2023-02-22T22:59:13.862Z,14.17
2023-02-22T23:01:45.722Z,17.30
2023-02-22T23:04:16.981Z,18.73
2023-02-22T23:06:52.275Z,18.40
2023-02-22T23:09:29.551Z,14.73
2023-02-22T23:12:08.906Z,14.73
2023-02-22T23:14:39.678Z,17.50
2023-02-22T23:17:14.276Z,15.50
2023-02-22T23:19:44.745Z,12.73
2023-02-22T23:22:14.044Z,15.37
2023-02-22T23:24:41.243Z,14.53
2023-02-22T23:27:10.589Z,16.40
2023-02-22T23:29:40.932Z,14.57
2023-02-22T23:32:08.882Z,11.63
2023-02-22T23:34:38.482Z,14.87
2023-02-22T23:37:09.727Z,22.87
2023-02-22T23:39:37.024Z,19.27
2023-02-22T23:42:04.042Z,14.97
2023-02-22T23:44:30.972Z,19.10
2023-02-22T23:46:58.117Z,20.43
2023-02-22T23:49:38.703Z,16.60
2023-02-22T23:52:09.030Z,19.83
2023-02-22T23:54:43.838Z,18.43
2023-02-22T23:57:17.110Z,18.33
2023-02-22T23:59:45.712Z,15.53
